sensor_id;sensor_type;location;lat;lon;timestamp;pressure;altitude;pressure_sealevel;temperature;humidity
19259;BME280;9763;48.780;9.212;2023-05-08T00:01:45;98626.53;;;19.62;79.53
19259;BME280;9763;48.780;9.212;2023-05-08T00:05:10;98620.25;;;19.63;79.30
19259;BME280;9763;48.780;9.212;2023-05-08T00:08:34;98629.88;;;19.64;79.66
19259;BME280;9763;48.780;9.212;2023-05-08T00:12:00;98627.06;;;19.66;79.92
19259;BME280;9763;48.780;9.212;2023-05-08T00:15:24;98627.75;;;19.68;80.01
19259;BME280;9763;48.780;9.212;2023-05-08T00:18:48;98624.78;;;19.71;80.00
19259;BME280;9763;48.780;9.212;2023-05-08T00:22:12;98627.28;;;19.72;79.92
19259;BME280;9763;48.780;9.212;2023-05-08T00:25:36;98629.94;;;19.72;79.86
19259;BME280;9763;48.780;9.212;2023-05-08T00:29:01;98629.63;;;19.75;79.97
19259;BME280;9763;48.780;9.212;2023-05-08T00:32:27;98629.47;;;19.77;79.88
19259;BME280;9763;48.780;9.212;2023-05-08T00:35:58;98626.00;;;19.76;79.23
19259;BME280;9763;48.780;9.212;2023-05-08T00:39:22;98626.16;;;19.75;79.63
19259;BME280;9763;48.780;9.212;2023-05-08T00:42:45;98631.75;;;19.72;79.19
19259;BME280;9763;48.780;9.212;2023-05-08T00:46:11;98633.84;;;19.68;79.20
19259;BME280;9763;48.780;9.212;2023-05-08T00:49:35;98635.00;;;19.66;79.04
19259;BME280;9763;48.780;9.212;2023-05-08T00:53:00;98632.81;;;19.61;78.94
19259;BME280;9763;48.780;9.212;2023-05-08T00:56:27;98639.91;;;19.61;79.46
19259;BME280;9763;48.780;9.212;2023-05-08T00:59:52;98636.72;;;19.57;79.47
19259;BME280;9763;48.780;9.212;2023-05-08T01:03:20;98641.50;;;19.54;79.27
19259;BME280;9763;48.780;9.212;2023-05-08T01:06:45;98644.31;;;19.52;79.13
19259;BME280;9763;48.780;9.212;2023-05-08T01:10:09;98640.97;;;19.50;79.51
19259;BME280;9763;48.780;9.212;2023-05-08T01:13:46;98643.03;;;19.47;78.96
19259;BME280;9763;48.780;9.212;2023-05-08T01:17:25;98648.50;;;19.45;79.37
19259;BME280;9763;48.780;9.212;2023-05-08T01:20:58;98646.84;;;19.44;79.61
19259;BME280;9763;48.780;9.212;2023-05-08T01:24:41;98644.22;;;19.44;79.36
19259;BME280;9763;48.780;9.212;2023-05-08T01:32:21;98650.63;;;19.41;79.68
19259;BME280;9763;48.780;9.212;2023-05-08T01:39:20;98652.59;;;19.39;79.96
19259;BME280;9763;48.780;9.212;2023-05-08T01:42:48;98656.22;;;19.38;79.29
19259;BME280;9763;48.780;9.212;2023-05-08T01:46:17;98651.91;;;19.37;79.54
19259;BME280;9763;48.780;9.212;2023-05-08T01:49:45;98649.25;;;19.37;79.35
19259;BME280;9763;48.780;9.212;2023-05-08T01:53:18;98657.19;;;19.37;79.86
19259;BME280;9763;48.780;9.212;2023-05-08T01:56:44;98657.88;;;19.39;79.61
19259;BME280;9763;48.780;9.212;2023-05-08T02:00:11;98660.22;;;19.42;79.42
19259;BME280;9763;48.780;9.212;2023-05-08T02:03:40;98661.72;;;19.45;79.97
19259;BME280;9763;48.780;9.212;2023-05-08T02:07:05;98662.16;;;19.50;80.06
19259;BME280;9763;48.780;9.212;2023-05-08T02:10:30;98667.16;;;19.53;79.62
19259;BME280;9763;48.780;9.212;2023-05-08T02:13:55;98665.19;;;19.55;80.02
19259;BME280;9763;48.780;9.212;2023-05-08T02:17:20;98667.53;;;19.58;79.84
19259;BME280;9763;48.780;9.212;2023-05-08T02:20:44;98659.44;;;19.60;79.75
19259;BME280;9763;48.780;9.212;2023-05-08T02:24:11;98661.09;;;19.61;79.91
19259;BME280;9763;48.780;9.212;2023-05-08T02:27:36;98667.22;;;19.61;79.39
19259;BME280;9763;48.780;9.212;2023-05-08T02:31:01;98668.06;;;19.62;79.71
19259;BME280;9763;48.780;9.212;2023-05-08T02:34:26;98669.88;;;19.61;79.30
19259;BME280;9763;48.780;9.212;2023-05-08T02:37:52;98671.84;;;19.59;79.49
19259;BME280;9763;48.780;9.212;2023-05-08T02:41:20;98676.31;;;19.59;79.68
19259;BME280;9763;48.780;9.212;2023-05-08T02:44:46;98679.94;;;19.58;79.77
19259;BME280;9763;48.780;9.212;2023-05-08T02:48:13;98665.72;;;19.59;79.87
19259;BME280;9763;48.780;9.212;2023-05-08T02:51:46;98670.88;;;19.60;79.86
19259;BME280;9763;48.780;9.212;2023-05-08T02:55:22;98674.34;;;19.61;79.84
19259;BME280;9763;48.780;9.212;2023-05-08T02:59:00;98672.25;;;19.64;79.20
19259;BME280;9763;48.780;9.212;2023-05-08T03:02:38;98673.06;;;19.65;79.82
19259;BME280;9763;48.780;9.212;2023-05-08T03:06:10;98670.41;;;19.65;79.49
19259;BME280;9763;48.780;9.212;2023-05-08T03:09:38;98666.09;;;19.64;79.07
19259;BME280;9763;48.780;9.212;2023-05-08T03:13:06;98665.28;;;19.63;79.43
19259;BME280;9763;48.780;9.212;2023-05-08T03:16:35;98659.00;;;19.64;78.89
19259;BME280;9763;48.780;9.212;2023-05-08T03:20:04;98666.09;;;19.64;79.50
19259;BME280;9763;48.780;9.212;2023-05-08T03:23:32;98665.28;;;19.63;79.26
19259;BME280;9763;48.780;9.212;2023-05-08T03:26:59;98650.28;;;19.54;79.47
19259;BME280;9763;48.780;9.212;2023-05-08T03:30:24;98667.09;;;19.63;79.34
19259;BME280;9763;48.780;9.212;2023-05-08T03:33:57;98661.94;;;19.61;79.38
19259;BME280;9763;48.780;9.212;2023-05-08T03:37:22;98666.41;;;19.61;79.34
19259;BME280;9763;48.780;9.212;2023-05-08T03:40:46;98667.38;;;19.60;79.10
19259;BME280;9763;48.780;9.212;2023-05-08T03:44:11;98672.00;;;19.58;79.40
19259;BME280;9763;48.780;9.212;2023-05-08T03:47:36;98665.84;;;19.57;79.50
19259;BME280;9763;48.780;9.212;2023-05-08T03:51:05;98677.44;;;19.56;78.98
19259;BME280;9763;48.780;9.212;2023-05-08T03:54:31;98677.28;;;19.58;78.99
19259;BME280;9763;48.780;9.212;2023-05-08T03:58:01;98671.00;;;19.59;78.89
19259;BME280;9763;48.780;9.212;2023-05-08T04:01:37;98674.50;;;19.59;79.08
19259;BME280;9763;48.780;9.212;2023-05-08T04:05:09;98672.00;;;19.58;78.75
19259;BME280;9763;48.780;9.212;2023-05-08T04:08:47;98672.81;;;19.58;79.54
19259;BME280;9763;48.780;9.212;2023-05-08T04:12:16;98679.09;;;19.57;79.28
19259;BME280;9763;48.780;9.212;2023-05-08T04:15:50;98677.28;;;19.58;78.99
19259;BME280;9763;48.780;9.212;2023-05-08T04:19:23;98681.75;;;19.57;78.85
19259;BME280;9763;48.780;9.212;2023-05-08T04:22:53;98695.81;;;19.58;79.27
19259;BME280;9763;48.780;9.212;2023-05-08T04:26:19;98688.84;;;19.57;78.84
19259;BME280;9763;48.780;9.212;2023-05-08T04:29:45;98697.63;;;19.57;78.82
19259;BME280;9763;48.780;9.212;2023-05-08T04:33:10;98700.28;;;19.57;79.24
19259;BME280;9763;48.780;9.212;2023-05-08T04:36:34;98697.50;;;19.59;78.68
19259;BME280;9763;48.780;9.212;2023-05-08T04:40:01;98707.94;;;19.60;79.10
19259;BME280;9763;48.780;9.212;2023-05-08T04:43:28;98710.28;;;19.63;78.84
19259;BME280;9763;48.780;9.212;2023-05-08T04:46:52;98702.06;;;19.66;79.22
19259;BME280;9763;48.780;9.212;2023-05-08T04:50:16;98702.72;;;19.68;79.08
19259;BME280;9763;48.780;9.212;2023-05-08T04:53:41;98711.50;;;19.69;78.71
19259;BME280;9763;48.780;9.212;2023-05-08T04:57:05;98707.72;;;19.71;79.08
19259;BME280;9763;48.780;9.212;2023-05-08T05:00:31;98707.56;;;19.73;79.08
19259;BME280;9763;48.780;9.212;2023-05-08T05:03:55;98718.03;;;19.74;78.95
19259;BME280;9763;48.780;9.212;2023-05-08T05:07:19;98710.06;;;19.74;78.63
19259;BME280;9763;48.780;9.212;2023-05-08T05:10:43;98717.88;;;19.76;78.56
19259;BME280;9763;48.780;9.212;2023-05-08T05:14:07;98721.22;;;19.78;78.77
19259;BME280;9763;48.780;9.212;2023-05-08T05:17:33;98721.06;;;19.80;78.91
19259;BME280;9763;48.780;9.212;2023-05-08T05:20:57;98725.34;;;19.81;78.66
19259;BME280;9763;48.780;9.212;2023-05-08T05:24:24;98727.84;;;19.82;79.03
19259;BME280;9763;48.780;9.212;2023-05-08T05:27:47;98725.69;;;19.77;79.09
19259;BME280;9763;48.780;9.212;2023-05-08T05:31:12;98733.22;;;19.72;79.13
19259;BME280;9763;48.780;9.212;2023-05-08T05:34:37;98734.34;;;19.70;79.46
19259;BME280;9763;48.780;9.212;2023-05-08T05:38:02;98737.16;;;19.68;79.02
19259;BME280;9763;48.780;9.212;2023-05-08T05:41:27;98737.47;;;19.65;79.20
19259;BME280;9763;48.780;9.212;2023-05-08T05:44:50;98744.44;;;19.66;79.68
19259;BME280;9763;48.780;9.212;2023-05-08T05:48:14;98741.78;;;19.66;79.01
19259;BME280;9763;48.780;9.212;2023-05-08T05:51:41;98743.44;;;19.67;79.42
19259;BME280;9763;48.780;9.212;2023-05-08T05:55:05;98742.44;;;19.68;79.39
19259;BME280;9763;48.780;9.212;2023-05-08T05:58:30;98743.97;;;19.71;79.03
19259;BME280;9763;48.780;9.212;2023-05-08T06:01:54;98739.22;;;19.74;79.31
19259;BME280;9763;48.780;9.212;2023-05-08T06:05:18;98740.88;;;19.75;79.14
19259;BME280;9763;48.780;9.212;2023-05-08T06:08:43;98747.69;;;19.78;79.03
19259;BME280;9763;48.780;9.212;2023-05-08T06:12:08;98746.72;;;19.79;79.51
19259;BME280;9763;48.780;9.212;2023-05-08T06:15:33;98743.91;;;19.81;78.80
19259;BME280;9763;48.780;9.212;2023-05-08T06:18:58;98749.06;;;19.82;79.41
19259;BME280;9763;48.780;9.212;2023-05-08T06:22:22;98740.59;;;19.78;79.48
19259;BME280;9763;48.780;9.212;2023-05-08T06:25:47;98751.41;;;19.85;79.52
19259;BME280;9763;48.780;9.212;2023-05-08T06:29:11;98752.94;;;19.88;80.06
19259;BME280;9763;48.780;9.212;2023-05-08T06:32:35;98747.34;;;19.91;79.90
19259;BME280;9763;48.780;9.212;2023-05-08T06:36:00;98748.25;;;19.99;79.98
19259;BME280;9763;48.780;9.212;2023-05-08T06:39:23;98753.19;;;20.12;79.71
19259;BME280;9763;48.780;9.212;2023-05-08T06:42:49;98759.06;;;20.24;78.84
19259;BME280;9763;48.780;9.212;2023-05-08T06:46:12;98759.97;;;20.32;79.02
19259;BME280;9763;48.780;9.212;2023-05-08T06:49:37;98764.03;;;20.36;78.51
19259;BME280;9763;48.780;9.212;2023-05-08T06:53:01;98761.09;;;20.39;78.70
19259;BME280;9763;48.780;9.212;2023-05-08T06:56:24;98756.59;;;20.40;78.74
19259;BME280;9763;48.780;9.212;2023-05-08T06:59:49;98763.56;;;20.41;78.50
19259;BME280;9763;48.780;9.212;2023-05-08T07:03:13;98761.59;;;20.43;78.70
19259;BME280;9763;48.780;9.212;2023-05-08T07:06:37;98763.41;;;20.42;78.18
19259;BME280;9763;48.780;9.212;2023-05-08T07:10:01;98763.56;;;20.41;78.59
19259;BME280;9763;48.780;9.212;2023-05-08T07:13:28;98770.03;;;20.38;78.02
19259;BME280;9763;48.780;9.212;2023-05-08T07:16:54;98763.19;;;20.36;78.50
19259;BME280;9763;48.780;9.212;2023-05-08T07:20:18;98768.50;;;20.36;78.46
19259;BME280;9763;48.780;9.212;2023-05-08T07:23:41;98765.41;;;20.40;77.89
19259;BME280;9763;48.780;9.212;2023-05-08T07:27:05;98768.56;;;20.44;78.36
19259;BME280;9763;48.780;9.212;2023-05-08T07:30:30;98773.25;;;20.50;77.89
19259;BME280;9763;48.780;9.212;2023-05-08T07:33:56;98771.28;;;20.52;77.77
19259;BME280;9763;48.780;9.212;2023-05-08T07:37:20;98771.28;;;20.52;78.08
19259;BME280;9763;48.780;9.212;2023-05-08T07:40:45;98774.09;;;20.51;77.85
19259;BME280;9763;48.780;9.212;2023-05-08T07:44:10;98772.56;;;20.48;77.88
19259;BME280;9763;48.780;9.212;2023-05-08T07:47:34;98777.03;;;20.47;77.71
19259;BME280;9763;48.780;9.212;2023-05-08T07:50:59;98779.56;;;20.49;77.96
19259;BME280;9763;48.780;9.212;2023-05-08T07:54:23;98784.56;;;20.52;78.18
19259;BME280;9763;48.780;9.212;2023-05-08T07:57:47;98781.56;;;20.55;77.98
19259;BME280;9763;48.780;9.212;2023-05-08T08:01:11;98784.75;;;20.59;78.47
19259;BME280;9763;48.780;9.212;2023-05-08T08:04:35;98780.69;;;20.64;78.42
19259;BME280;9763;48.780;9.212;2023-05-08T08:08:01;98783.22;;;20.74;78.01
19259;BME280;9763;48.780;9.212;2023-05-08T08:11:25;98782.00;;;20.86;77.89
19259;BME280;9763;48.780;9.212;2023-05-08T08:14:49;98786.53;;;21.02;78.02
19259;BME280;9763;48.780;9.212;2023-05-08T08:18:13;98779.69;;;21.17;78.45
19259;BME280;9763;48.780;9.212;2023-05-08T08:21:41;98778.59;;;21.28;77.77
19259;BME280;9763;48.780;9.212;2023-05-08T08:25:07;98781.16;;;21.37;77.93
19259;BME280;9763;48.780;9.212;2023-05-08T08:28:31;98787.03;;;21.49;78.39
19259;BME280;9763;48.780;9.212;2023-05-08T08:31:55;98787.06;;;21.57;77.77
19259;BME280;9763;48.780;9.212;2023-05-08T08:35:19;98791.56;;;21.65;77.88
19259;BME280;9763;48.780;9.212;2023-05-08T08:38:48;98781.81;;;21.73;78.22
19259;BME280;9763;48.780;9.212;2023-05-08T08:42:13;98783.97;;;21.78;77.93
19259;BME280;9763;48.780;9.212;2023-05-08T08:45:37;98782.97;;;21.79;77.80
19259;BME280;9763;48.780;9.212;2023-05-08T08:49:03;98780.84;;;21.82;77.26
19259;BME280;9763;48.780;9.212;2023-05-08T08:52:31;98791.16;;;21.85;77.10
19259;BME280;9763;48.780;9.212;2023-05-08T08:56:00;98790.66;;;21.90;77.47
19259;BME280;9763;48.780;9.212;2023-05-08T08:59:27;98789.13;;;21.87;77.17
19259;BME280;9763;48.780;9.212;2023-05-08T09:02:51;98794.28;;;21.81;76.78
19259;BME280;9763;48.780;9.212;2023-05-08T09:06:16;98795.09;;;21.73;76.98
19259;BME280;9763;48.780;9.212;2023-05-08T09:09:41;98795.88;;;21.66;77.60
19259;BME280;9763;48.780;9.212;2023-05-08T09:13:05;98794.03;;;21.58;77.56
19259;BME280;9763;48.780;9.212;2023-05-08T09:16:31;98791.00;;;21.53;77.15
19259;BME280;9763;48.780;9.212;2023-05-08T09:19:55;98792.50;;;21.47;77.42
19259;BME280;9763;48.780;9.212;2023-05-08T09:23:19;98796.75;;;21.40;77.51
19259;BME280;9763;48.780;9.212;2023-05-08T09:26:43;98798.28;;;21.43;77.89
19259;BME280;9763;48.780;9.212;2023-05-08T09:30:08;98783.84;;;21.45;77.42
19259;BME280;9763;48.780;9.212;2023-05-08T09:33:43;98796.63;;;21.50;77.59
19259;BME280;9763;48.780;9.212;2023-05-08T09:37:11;98790.66;;;21.48;77.61
19259;BME280;9763;48.780;9.212;2023-05-08T09:40:35;98795.25;;;21.38;78.66
19259;BME280;9763;48.780;9.212;2023-05-08T09:44:01;98793.09;;;21.33;79.41
19259;BME280;9763;48.780;9.212;2023-05-08T09:47:26;98800.91;;;21.35;80.53
19259;BME280;9763;48.780;9.212;2023-05-08T09:51:05;98796.59;;;21.42;81.05
19259;BME280;9763;48.780;9.212;2023-05-08T09:54:28;98801.16;;;21.58;81.33
19259;BME280;9763;48.780;9.212;2023-05-08T09:57:56;98798.91;;;21.79;80.51
19259;BME280;9763;48.780;9.212;2023-05-08T10:01:28;98798.84;;;22.05;80.31
19259;BME280;9763;48.780;9.212;2023-05-08T10:04:53;98807.22;;;22.34;79.03
19259;BME280;9763;48.780;9.212;2023-05-08T10:08:23;98796.09;;;22.63;78.59
19259;BME280;9763;48.780;9.212;2023-05-08T10:11:52;98798.44;;;22.90;77.32
19259;BME280;9763;48.780;9.212;2023-05-08T10:15:21;98793.75;;;23.17;77.00
19259;BME280;9763;48.780;9.212;2023-05-08T10:18:49;98796.97;;;23.43;76.72
19259;BME280;9763;48.780;9.212;2023-05-08T10:22:24;98798.13;;;23.65;76.35
19259;BME280;9763;48.780;9.212;2023-05-08T10:25:59;98795.19;;;23.83;75.57
19259;BME280;9763;48.780;9.212;2023-05-08T10:29:37;98797.47;;;23.94;75.53
19259;BME280;9763;48.780;9.212;2023-05-08T10:33:10;98790.72;;;24.06;75.35
19259;BME280;9763;48.780;9.212;2023-05-08T10:36:42;98799.16;;;24.18;75.91
19259;BME280;9763;48.780;9.212;2023-05-08T10:40:11;98801.47;;;24.21;74.82
19259;BME280;9763;48.780;9.212;2023-05-08T10:43:41;98799.50;;;24.23;74.70
19259;BME280;9763;48.780;9.212;2023-05-08T10:47:10;98800.47;;;24.22;75.02
19259;BME280;9763;48.780;9.212;2023-05-08T10:50:54;98798.69;;;24.14;75.09
19259;BME280;9763;48.780;9.212;2023-05-08T10:54:27;98793.88;;;24.10;74.67
19259;BME280;9763;48.780;9.212;2023-05-08T10:58:13;98788.53;;;24.10;74.58
19259;BME280;9763;48.780;9.212;2023-05-08T11:01:39;98790.72;;;24.06;74.32
19259;BME280;9763;48.780;9.212;2023-05-08T11:05:15;98787.78;;;24.01;74.61
19259;BME280;9763;48.780;9.212;2023-05-08T11:08:50;98780.44;;;23.95;74.62
19259;BME280;9763;48.780;9.212;2023-05-08T11:12:20;98787.44;;;23.96;75.36
19259;BME280;9763;48.780;9.212;2023-05-08T11:15:49;98792.22;;;24.09;75.07
19259;BME280;9763;48.780;9.212;2023-05-08T11:19:18;98788.09;;;24.29;75.03
19259;BME280;9763;48.780;9.212;2023-05-08T11:22:46;98787.38;;;24.58;74.63
19259;BME280;9763;48.780;9.212;2023-05-08T11:26:12;98781.75;;;24.90;74.72
19259;BME280;9763;48.780;9.212;2023-05-08T11:29:38;98772.97;;;25.48;72.96
19259;BME280;9763;48.780;9.212;2023-05-08T11:33:25;98774.31;;;25.89;72.09
19259;BME280;9763;48.780;9.212;2023-05-08T11:37:02;98772.78;;;26.15;71.89
19259;BME280;9763;48.780;9.212;2023-05-08T11:40:45;98764.97;;;26.57;71.48
19259;BME280;9763;48.780;9.212;2023-05-08T11:44:17;98764.72;;;27.35;70.33
19259;BME280;9763;48.780;9.212;2023-05-08T11:47:43;98767.31;;;28.11;68.98
19259;BME280;9763;48.780;9.212;2023-05-08T11:51:07;98759.56;;;28.42;67.71
19259;BME280;9763;48.780;9.212;2023-05-08T11:54:33;98764.13;;;28.48;67.04
19259;BME280;9763;48.780;9.212;2023-05-08T11:57:57;98755.63;;;28.51;66.76
19259;BME280;9763;48.780;9.212;2023-05-08T12:01:21;98757.31;;;28.92;65.85
19259;BME280;9763;48.780;9.212;2023-05-08T12:04:46;98745.47;;;29.84;64.68
19259;BME280;9763;48.780;9.212;2023-05-08T12:08:11;98751.13;;;30.45;62.56
19259;BME280;9763;48.780;9.212;2023-05-08T12:11:36;98741.28;;;30.64;62.03
19259;BME280;9763;48.780;9.212;2023-05-08T12:15:06;98749.56;;;30.87;61.49
19259;BME280;9763;48.780;9.212;2023-05-08T12:18:30;98723.66;;;30.86;61.22
19259;BME280;9763;48.780;9.212;2023-05-08T12:21:56;98738.22;;;31.40;60.67
19259;BME280;9763;48.780;9.212;2023-05-08T12:25:20;98742.38;;;32.50;59.22
19259;BME280;9763;48.780;9.212;2023-05-08T12:28:45;98739.03;;;33.25;57.51
19259;BME280;9763;48.780;9.212;2023-05-08T12:32:10;98744.88;;;33.22;57.12
19259;BME280;9763;48.780;9.212;2023-05-08T12:35:34;98745.72;;;32.99;57.14
19259;BME280;9763;48.780;9.212;2023-05-08T12:39:09;98736.34;;;32.78;57.58
19259;BME280;9763;48.780;9.212;2023-05-08T12:42:44;98739.16;;;32.95;56.94
19259;BME280;9763;48.780;9.212;2023-05-08T12:46:10;98738.03;;;32.49;57.94
19259;BME280;9763;48.780;9.212;2023-05-08T12:49:37;98730.47;;;31.98;59.32
19259;BME280;9763;48.780;9.212;2023-05-08T12:53:04;98728.03;;;31.60;59.66
19259;BME280;9763;48.780;9.212;2023-05-08T12:56:28;98725.28;;;31.12;60.67
19259;BME280;9763;48.780;9.212;2023-05-08T13:00:02;98730.84;;;30.42;61.51
19259;BME280;9763;48.780;9.212;2023-05-08T13:03:29;98732.63;;;29.86;62.90
19259;BME280;9763;48.780;9.212;2023-05-08T13:06:55;98738.56;;;29.50;64.23
19259;BME280;9763;48.780;9.212;2023-05-08T13:10:19;98724.53;;;29.41;64.07
19259;BME280;9763;48.780;9.212;2023-05-08T13:13:46;98730.53;;;29.43;63.86
19259;BME280;9763;48.780;9.212;2023-05-08T13:17:10;98727.25;;;29.28;64.27
19259;BME280;9763;48.780;9.212;2023-05-08T13:20:41;98728.38;;;28.81;64.68
19259;BME280;9763;48.780;9.212;2023-05-08T13:24:05;98730.00;;;28.62;65.80
19259;BME280;9763;48.780;9.212;2023-05-08T13:27:29;98725.25;;;28.57;65.46
19259;BME280;9763;48.780;9.212;2023-05-08T13:30:53;98731.03;;;28.28;66.05
19259;BME280;9763;48.780;9.212;2023-05-08T13:34:17;98729.91;;;27.96;66.98
19259;BME280;9763;48.780;9.212;2023-05-08T13:37:42;98715.38;;;27.71;67.61
19259;BME280;9763;48.780;9.212;2023-05-08T13:41:06;98724.31;;;27.43;67.42
19259;BME280;9763;48.780;9.212;2023-05-08T13:44:30;98715.75;;;27.20;68.01
19259;BME280;9763;48.780;9.212;2023-05-08T13:47:54;98714.81;;;27.00;68.77
19259;BME280;9763;48.780;9.212;2023-05-08T13:51:18;98709.50;;;26.78;69.06
19259;BME280;9763;48.780;9.212;2023-05-08T13:54:44;98706.28;;;26.62;69.53
19259;BME280;9763;48.780;9.212;2023-05-08T13:58:07;98702.63;;;26.41;70.32
19259;BME280;9763;48.780;9.212;2023-05-08T14:01:31;98710.38;;;26.15;69.78
19259;BME280;9763;48.780;9.212;2023-05-08T14:04:55;98712.56;;;25.83;70.32
19259;BME280;9763;48.780;9.212;2023-05-08T14:08:19;98686.81;;;25.46;70.95
19259;BME280;9763;48.780;9.212;2023-05-08T14:11:45;98708.63;;;25.50;71.37
19259;BME280;9763;48.780;9.212;2023-05-08T14:15:09;98711.41;;;25.42;71.92
19259;BME280;9763;48.780;9.212;2023-05-08T14:18:34;98720.16;;;25.36;72.36
19259;BME280;9763;48.780;9.212;2023-05-08T14:21:59;98708.50;;;25.22;72.44
19259;BME280;9763;48.780;9.212;2023-05-08T14:25:23;98704.22;;;25.13;72.92
19259;BME280;9763;48.780;9.212;2023-05-08T14:28:49;98703.44;;;24.98;72.95
19259;BME280;9763;48.780;9.212;2023-05-08T14:32:13;98710.38;;;24.84;72.86
19259;BME280;9763;48.780;9.212;2023-05-08T14:35:37;98701.53;;;24.69;72.99
19259;BME280;9763;48.780;9.212;2023-05-08T14:39:04;98715.22;;;24.51;73.74
19259;BME280;9763;48.780;9.212;2023-05-08T14:42:29;98717.84;;;24.36;73.93
19259;BME280;9763;48.780;9.212;2023-05-08T14:45:56;98723.28;;;24.20;74.38
19259;BME280;9763;48.780;9.212;2023-05-08T14:49:20;98722.03;;;24.08;74.05
19259;BME280;9763;48.780;9.212;2023-05-08T14:52:58;98722.94;;;24.00;74.86
19259;BME280;9763;48.780;9.212;2023-05-08T14:56:23;98722.63;;;23.95;74.88
19259;BME280;9763;48.780;9.212;2023-05-08T14:59:47;98723.97;;;23.91;75.44
19259;BME280;9763;48.780;9.212;2023-05-08T15:03:18;98702.41;;;23.78;75.20
19259;BME280;9763;48.780;9.212;2023-05-08T15:06:42;98722.69;;;23.87;75.77
19259;BME280;9763;48.780;9.212;2023-05-08T15:10:06;98711.03;;;23.80;76.11
19259;BME280;9763;48.780;9.212;2023-05-08T15:13:30;98715.94;;;23.68;75.58
19259;BME280;9763;48.780;9.212;2023-05-08T15:16:54;98721.31;;;23.60;75.40
19259;BME280;9763;48.780;9.212;2023-05-08T15:20:19;98716.50;;;23.56;76.10
19259;BME280;9763;48.780;9.212;2023-05-08T15:23:43;98715.03;;;23.53;76.08
19259;BME280;9763;48.780;9.212;2023-05-08T15:27:07;98718.72;;;23.52;76.42
19259;BME280;9763;48.780;9.212;2023-05-08T15:30:32;98715.69;;;23.55;76.62
19259;BME280;9763;48.780;9.212;2023-05-08T15:33:57;98721.31;;;23.60;76.53
19259;BME280;9763;48.780;9.212;2023-05-08T15:37:22;98717.84;;;23.60;76.97
19259;BME280;9763;48.780;9.212;2023-05-08T15:40:46;98716.78;;;23.69;77.25
19259;BME280;9763;48.780;9.212;2023-05-08T15:44:10;98720.53;;;23.83;76.62
19259;BME280;9763;48.780;9.212;2023-05-08T15:47:35;98702.84;;;23.90;75.65
19259;BME280;9763;48.780;9.212;2023-05-08T15:50:59;98722.34;;;24.13;75.86
19259;BME280;9763;48.780;9.212;2023-05-08T15:54:24;98719.94;;;24.18;74.76
19259;BME280;9763;48.780;9.212;2023-05-08T15:57:48;98720.94;;;24.25;74.97
19259;BME280;9763;48.780;9.212;2023-05-08T16:01:12;98720.88;;;24.33;75.06
19259;BME280;9763;48.780;9.212;2023-05-08T16:04:35;98723.63;;;24.40;75.03
19259;BME280;9763;48.780;9.212;2023-05-08T16:07:59;98719.13;;;24.40;74.81
19259;BME280;9763;48.780;9.212;2023-05-08T16:11:27;98723.09;;;24.45;74.77
19259;BME280;9763;48.780;9.212;2023-05-08T16:14:52;98716.59;;;24.47;74.64
19259;BME280;9763;48.780;9.212;2023-05-08T16:18:16;98722.41;;;24.51;74.23
19259;BME280;9763;48.780;9.212;2023-05-08T16:21:40;98722.19;;;24.52;74.74
19259;BME280;9763;48.780;9.212;2023-05-08T16:25:05;98723.03;;;24.53;74.78
19259;BME280;9763;48.780;9.212;2023-05-08T16:28:30;98729.38;;;24.52;74.74
19259;BME280;9763;48.780;9.212;2023-05-08T16:31:54;98726.13;;;24.41;74.01
19259;BME280;9763;48.780;9.212;2023-05-08T16:35:19;98731.22;;;24.28;74.64
19259;BME280;9763;48.780;9.212;2023-05-08T16:38:44;98736.84;;;24.11;74.36
19259;BME280;9763;48.780;9.212;2023-05-08T16:42:09;98737.84;;;23.87;74.29
19259;BME280;9763;48.780;9.212;2023-05-08T16:45:34;98722.47;;;23.66;74.26
19259;BME280;9763;48.780;9.212;2023-05-08T16:48:58;98724.72;;;23.54;74.47
19259;BME280;9763;48.780;9.212;2023-05-08T16:52:22;98712.38;;;23.45;75.20
19259;BME280;9763;48.780;9.212;2023-05-08T16:55:46;98711.91;;;23.42;75.04
19259;BME280;9763;48.780;9.212;2023-05-08T16:59:10;98723.06;;;23.37;75.18
19259;BME280;9763;48.780;9.212;2023-05-08T17:02:35;98734.91;;;23.34;75.80
19259;BME280;9763;48.780;9.212;2023-05-08T17:06:04;98727.25;;;23.31;75.69
19259;BME280;9763;48.780;9.212;2023-05-08T17:09:27;98718.63;;;23.21;75.56
19259;BME280;9763;48.780;9.212;2023-05-08T17:12:51;98732.00;;;23.13;75.51
19259;BME280;9763;48.780;9.212;2023-05-08T17:16:16;98731.19;;;23.05;75.95
19259;BME280;9763;48.780;9.212;2023-05-08T17:19:43;98732.84;;;22.97;76.20
19259;BME280;9763;48.780;9.212;2023-05-08T17:23:07;98730.06;;;22.91;75.97
19259;BME280;9763;48.780;9.212;2023-05-08T17:26:31;98737.88;;;22.84;76.28
19259;BME280;9763;48.780;9.212;2023-05-08T17:29:55;98741.69;;;22.74;75.78
19259;BME280;9763;48.780;9.212;2023-05-08T17:33:20;98744.03;;;22.60;76.08
19259;BME280;9763;48.780;9.212;2023-05-08T17:36:45;98746.72;;;22.52;76.65
19259;BME280;9763;48.780;9.212;2023-05-08T17:40:10;98745.53;;;22.47;76.08
19259;BME280;9763;48.780;9.212;2023-05-08T17:43:34;98748.38;;;22.37;76.55
19259;BME280;9763;48.780;9.212;2023-05-08T17:46:58;98748.38;;;22.29;76.65
19259;BME280;9763;48.780;9.212;2023-05-08T17:50:23;98750.84;;;22.22;76.40
19259;BME280;9763;48.780;9.212;2023-05-08T17:53:49;98759.66;;;22.15;76.50
19259;BME280;9763;48.780;9.212;2023-05-08T17:57:14;98761.97;;;22.10;76.47
19259;BME280;9763;48.780;9.212;2023-05-08T18:00:38;98761.78;;;22.03;75.92
19259;BME280;9763;48.780;9.212;2023-05-08T18:04:02;98766.25;;;21.95;76.41
19259;BME280;9763;48.780;9.212;2023-05-08T18:07:27;98766.03;;;21.88;76.17
19259;BME280;9763;48.780;9.212;2023-05-08T18:10:52;98763.38;;;21.80;76.31
19259;BME280;9763;48.780;9.212;2023-05-08T18:14:16;98762.53;;;21.71;76.31
19259;BME280;9763;48.780;9.212;2023-05-08T18:17:40;98753.22;;;21.67;76.52
19259;BME280;9763;48.780;9.212;2023-05-08T18:21:05;98752.00;;;21.62;76.01
19259;BME280;9763;48.780;9.212;2023-05-08T18:24:29;98757.16;;;21.55;76.12
19259;BME280;9763;48.780;9.212;2023-05-08T18:27:54;98760.63;;;21.47;76.28
19259;BME280;9763;48.780;9.212;2023-05-08T18:31:20;98760.41;;;21.41;76.27
19259;BME280;9763;48.780;9.212;2023-05-08T18:34:44;98768.03;;;21.36;76.59